Babuskin, Russia
Current Conditions -  °F | °C
As of 1:00 AM on Monday 22 Dec 2014 (Local Time) from UIUU Reporting Station
Few Clouds Few Clouds  
Wind Chill:   Ceiling: Unl
Heat Index:   Visibility: 6mi
Dew Point:   Wind: 2mph
Humidity: 85%   Direction: NA
Pressure: 30.06"   Gusts: NA
Location:  51.72°N, 105.85°E
Report Text: UIUU 211700Z VRB01MPS 9999 FEW043 M13/M15 Q1018 NOSIG RMKQFE719/0959 26493035
Loading
Personal Weather Stations






























Interactive Weather Map New forecast layout! Learn more

10-Day Weather Forecast

Advertisements
Track Severe Weather on mobile